createdAt,value
2023-02-09T00:03:39.000Z,82.04
2023-02-09T00:08:33.000Z,78.75
2023-02-09T00:13:26.000Z,78.29
2023-02-09T00:18:20.000Z,75.86
2023-02-09T00:23:14.000Z,76.27
2023-02-09T00:28:07.000Z,79.37
2023-02-09T00:33:02.000Z,88.18
2023-02-09T00:37:56.000Z,87.44
2023-02-09T00:42:49.000Z,79.43
2023-02-09T00:47:43.000Z,78.47
2023-02-09T00:52:37.000Z,84.25
2023-02-09T00:57:31.000Z,84.59
2023-02-09T01:02:25.000Z,82.49
2023-02-09T01:07:19.000Z,80.03
2023-02-09T01:12:13.000Z,77.20
2023-02-09T01:17:07.000Z,80.23
2023-02-09T01:22:01.000Z,78.21
2023-02-09T01:26:56.000Z,81.46
2023-02-09T01:31:49.000Z,85.66
2023-02-09T01:36:43.000Z,90.42
2023-02-09T01:41:36.000Z,92.77
2023-02-09T01:46:30.000Z,96.41
2023-02-09T01:51:24.000Z,100.00
2023-02-09T01:56:18.000Z,94.82
2023-02-09T02:01:12.000Z,96.53
2023-02-09T02:06:06.000Z,98.54
2023-02-09T02:11:01.000Z,100.00
2023-02-09T02:15:54.000Z,100.00
2023-02-09T02:20:49.000Z,100.00
2023-02-09T02:25:37.000Z,100.00
2023-02-09T02:30:31.000Z,100.00
2023-02-09T02:35:25.000Z,100.00
2023-02-09T02:40:20.000Z,100.00
2023-02-09T02:45:13.000Z,100.00
2023-02-09T02:50:07.000Z,100.00
2023-02-09T02:55:05.000Z,100.00
2023-02-09T02:59:53.000Z,100.00
2023-02-09T03:04:46.000Z,100.00
2023-02-09T03:09:38.000Z,100.00
2023-02-09T03:14:32.000Z,100.00
2023-02-09T03:19:26.000Z,100.00
2023-02-09T03:24:20.000Z,100.00
2023-02-09T03:29:13.000Z,100.00
2023-02-09T03:34:08.000Z,100.00
2023-02-09T03:39:02.000Z,100.00
2023-02-09T03:43:56.000Z,100.00
2023-02-09T03:48:50.000Z,100.00
2023-02-09T03:53:44.000Z,100.00
2023-02-09T03:58:37.000Z,100.00
2023-02-09T04:03:30.000Z,100.00
2023-02-09T04:08:25.000Z,100.00
2023-02-09T04:13:16.000Z,100.00
2023-02-09T04:18:10.000Z,100.00
2023-02-09T04:23:04.000Z,100.00
2023-02-09T04:27:59.000Z,100.00
2023-02-09T04:32:53.000Z,100.00
2023-02-09T04:37:47.000Z,100.00
2023-02-09T04:42:41.000Z,100.00
2023-02-09T04:47:32.000Z,100.00
2023-02-09T04:52:26.000Z,100.00
2023-02-09T04:57:20.000Z,100.00
2023-02-09T05:02:14.000Z,100.00
2023-02-09T05:07:08.000Z,100.00
2023-02-09T05:12:02.000Z,100.00
2023-02-09T05:16:56.000Z,100.00
2023-02-09T05:21:49.000Z,100.00
2023-02-09T05:26:42.000Z,100.00
2023-02-09T05:31:35.000Z,100.00
2023-02-09T05:36:29.000Z,100.00
2023-02-09T05:41:24.000Z,100.00
2023-02-09T05:46:17.000Z,100.00
2023-02-09T05:51:11.000Z,100.00
2023-02-09T05:56:05.000Z,100.00
2023-02-09T06:00:59.000Z,100.00
2023-02-09T06:05:51.000Z,100.00
2023-02-09T06:10:44.000Z,100.00
2023-02-09T06:15:39.000Z,100.00
2023-02-09T06:20:33.000Z,100.00
2023-02-09T06:25:24.000Z,100.00
2023-02-09T06:30:18.000Z,100.00
2023-02-09T06:35:12.000Z,100.00
2023-02-09T06:40:06.000Z,100.00
2023-02-09T06:45:00.000Z,100.00
2023-02-09T06:49:54.000Z,100.00
2023-02-09T06:54:49.000Z,100.00
2023-02-09T06:59:42.000Z,100.00
2023-02-09T07:04:35.000Z,100.00
2023-02-09T07:09:29.000Z,100.00
2023-02-09T07:14:24.000Z,100.00
2023-02-09T07:19:18.000Z,100.00
2023-02-09T07:24:12.000Z,100.00
2023-02-09T07:29:06.000Z,100.00
2023-02-09T07:33:58.000Z,100.00
2023-02-09T07:38:53.000Z,100.00
2023-02-09T07:43:46.000Z,100.00
2023-02-09T07:48:39.000Z,100.00
2023-02-09T07:53:34.000Z,100.00
2023-02-09T07:58:27.000Z,100.00
2023-02-09T08:03:21.000Z,100.00
2023-02-09T08:08:16.000Z,100.00
2023-02-09T08:13:09.000Z,100.00
2023-02-09T08:18:03.000Z,100.00
2023-02-09T08:22:57.000Z,100.00
2023-02-09T08:27:50.000Z,100.00
2023-02-09T08:32:40.000Z,100.00
2023-02-09T08:37:35.000Z,100.00
2023-02-09T08:42:29.000Z,100.00
2023-02-09T08:47:23.000Z,100.00
2023-02-09T08:52:16.000Z,100.00
2023-02-09T08:57:10.000Z,100.00
2023-02-09T09:02:04.000Z,100.00
2023-02-09T09:06:59.000Z,94.49
2023-02-09T09:11:53.000Z,91.59
2023-02-09T09:16:48.000Z,82.49
2023-02-09T09:21:43.000Z,60.45
2023-02-09T09:26:38.000Z,49.21
2023-02-09T09:31:34.000Z,44.22
2023-02-09T09:36:29.000Z,44.97
2023-02-09T09:41:23.000Z,40.80
2023-02-09T09:46:18.000Z,38.78
2023-02-09T09:51:12.000Z,38.51
2023-02-09T09:56:07.000Z,34.21
2023-02-09T10:01:01.000Z,36.14
2023-02-09T10:05:56.000Z,34.67
2023-02-09T10:10:50.000Z,35.92
2023-02-09T10:15:44.000Z,35.99
2023-02-09T10:20:36.000Z,35.23
2023-02-09T10:25:31.000Z,35.07
2023-02-09T10:30:26.000Z,35.03
2023-02-09T10:35:20.000Z,32.21
2023-02-09T10:40:13.000Z,32.31
2023-02-09T10:45:08.000Z,34.57
2023-02-09T10:50:02.000Z,32.27
2023-02-09T10:54:57.000Z,31.88
2023-02-09T10:59:50.000Z,33.94
2023-02-09T11:04:44.000Z,35.47
2023-02-09T11:09:38.000Z,33.47
2023-02-09T11:14:32.000Z,31.74
2023-02-09T11:19:25.000Z,32.02
2023-02-09T11:24:20.000Z,33.16
2023-02-09T11:29:14.000Z,35.25
2023-02-09T11:34:08.000Z,35.77
2023-02-09T11:39:02.000Z,34.00
2023-02-09T11:43:57.000Z,32.61
2023-02-09T11:48:50.000Z,30.05
2023-02-09T11:53:45.000Z,29.23
2023-02-09T11:58:40.000Z,29.56
2023-02-09T12:03:33.000Z,29.28
2023-02-09T12:08:24.000Z,28.70
2023-02-09T12:13:19.000Z,30.20
2023-02-09T12:18:10.000Z,31.84
2023-02-09T12:23:04.000Z,30.26
2023-02-09T12:27:57.000Z,32.86
2023-02-09T12:32:50.000Z,30.27
2023-02-09T12:37:44.000Z,31.17
2023-02-09T12:42:37.000Z,29.88
2023-02-09T12:47:29.000Z,33.52
2023-02-09T12:52:23.000Z,33.15
2023-02-09T12:57:16.000Z,31.94
2023-02-09T13:02:09.000Z,33.26
2023-02-09T13:07:04.000Z,30.47
2023-02-09T13:11:57.000Z,31.13
2023-02-09T13:16:47.000Z,30.65
2023-02-09T13:21:39.000Z,32.10
2023-02-09T13:26:33.000Z,32.57
2023-02-09T13:31:27.000Z,34.05
2023-02-09T13:36:21.000Z,29.46
2023-02-09T13:41:14.000Z,30.31
2023-02-09T13:46:08.000Z,31.26
2023-02-09T13:51:01.000Z,29.20
2023-02-09T13:55:54.000Z,29.19
2023-02-09T14:00:48.000Z,28.64
2023-02-09T14:05:42.000Z,28.13
2023-02-09T14:10:36.000Z,28.14
2023-02-09T14:15:30.000Z,28.25
2023-02-09T14:20:24.000Z,27.37
2023-02-09T14:25:17.000Z,27.11
2023-02-09T14:30:11.000Z,27.57
2023-02-09T14:35:05.000Z,27.23
2023-02-09T14:39:59.000Z,28.62
2023-02-09T14:44:52.000Z,29.63
2023-02-09T14:49:46.000Z,30.53
2023-02-09T14:54:40.000Z,30.00
2023-02-09T14:59:33.000Z,32.52
2023-02-09T15:04:26.000Z,32.38
2023-02-09T15:09:19.000Z,34.15
2023-02-09T15:14:13.000Z,36.57
2023-02-09T15:19:06.000Z,37.22
2023-02-09T15:24:00.000Z,36.73
2023-02-09T15:28:54.000Z,36.25
2023-02-09T15:33:48.000Z,36.00
2023-02-09T15:38:42.000Z,38.44
2023-02-09T15:43:35.000Z,39.37
2023-02-09T15:48:29.000Z,40.32
2023-02-09T15:53:23.000Z,40.74
2023-02-09T15:58:20.000Z,42.18
2023-02-09T16:03:09.000Z,42.12
2023-02-09T16:08:02.000Z,44.47
2023-02-09T16:12:55.000Z,45.69
2023-02-09T16:17:48.000Z,49.08
2023-02-09T16:22:40.000Z,49.86
2023-02-09T16:27:33.000Z,52.57
2023-02-09T16:32:26.000Z,58.59
2023-02-09T16:37:20.000Z,65.76
2023-02-09T16:42:13.000Z,63.58
2023-02-09T16:47:07.000Z,70.30
2023-02-09T16:52:01.000Z,70.38
2023-02-09T16:56:55.000Z,67.81
2023-02-09T17:01:47.000Z,72.83
2023-02-09T17:06:40.000Z,79.33
2023-02-09T17:11:34.000Z,71.19
2023-02-09T17:16:27.000Z,75.86
2023-02-09T17:21:20.000Z,81.72
2023-02-09T17:26:14.000Z,83.66
2023-02-09T17:31:08.000Z,85.49
2023-02-09T17:36:02.000Z,89.12
2023-02-09T17:40:56.000Z,89.23
2023-02-09T17:45:50.000Z,95.27
2023-02-09T17:50:44.000Z,93.99
2023-02-09T17:55:38.000Z,94.76
2023-02-09T18:00:31.000Z,97.57
2023-02-09T18:05:25.000Z,100.00
2023-02-09T18:10:18.000Z,100.00
2023-02-09T18:15:12.000Z,100.00
2023-02-09T18:20:06.000Z,100.00
2023-02-09T18:25:00.000Z,100.00
2023-02-09T18:29:54.000Z,100.00
2023-02-09T18:34:47.000Z,100.00
2023-02-09T18:39:41.000Z,100.00
2023-02-09T18:44:35.000Z,100.00
2023-02-09T18:49:28.000Z,100.00
2023-02-09T18:54:22.000Z,100.00
2023-02-09T18:59:16.000Z,100.00
2023-02-09T19:04:10.000Z,100.00
2023-02-09T19:09:04.000Z,100.00
2023-02-09T19:13:58.000Z,100.00
2023-02-09T19:18:51.000Z,100.00
2023-02-09T19:23:45.000Z,100.00
2023-02-09T19:28:39.000Z,100.00
2023-02-09T19:33:36.000Z,100.00
2023-02-09T19:38:26.000Z,100.00
2023-02-09T19:43:19.000Z,100.00
2023-02-09T19:48:13.000Z,100.00
2023-02-09T19:53:06.000Z,100.00
2023-02-09T19:58:01.000Z,100.00
2023-02-09T20:02:55.000Z,100.00
2023-02-09T20:07:47.000Z,100.00
2023-02-09T20:12:40.000Z,100.00
2023-02-09T20:17:34.000Z,100.00
2023-02-09T20:22:28.000Z,100.00
2023-02-09T20:27:20.000Z,100.00
2023-02-09T20:32:13.000Z,100.00
2023-02-09T20:37:08.000Z,100.00
2023-02-09T20:42:02.000Z,100.00
2023-02-09T20:46:56.000Z,100.00
2023-02-09T20:51:50.000Z,100.00
2023-02-09T20:56:41.000Z,100.00
2023-02-09T21:01:36.000Z,100.00
2023-02-09T21:06:30.000Z,100.00
2023-02-09T21:11:22.000Z,100.00
2023-02-09T21:16:17.000Z,100.00
2023-02-09T21:21:10.000Z,100.00
2023-02-09T21:26:04.000Z,100.00
2023-02-09T21:30:58.000Z,100.00
2023-02-09T21:35:52.000Z,100.00
2023-02-09T21:40:45.000Z,100.00
2023-02-09T21:45:39.000Z,100.00
2023-02-09T21:50:31.000Z,100.00
2023-02-09T21:55:25.000Z,100.00
2023-02-09T22:00:18.000Z,100.00
2023-02-09T22:05:12.000Z,100.00
2023-02-09T22:10:05.000Z,100.00
2023-02-09T22:14:59.000Z,100.00
2023-02-09T22:19:52.000Z,100.00
2023-02-09T22:24:46.000Z,100.00
2023-02-09T22:29:40.000Z,100.00
2023-02-09T22:34:33.000Z,100.00
2023-02-09T22:39:27.000Z,100.00
2023-02-09T22:44:21.000Z,100.00
2023-02-09T22:49:17.000Z,100.00
2023-02-09T22:54:07.000Z,100.00
2023-02-09T22:59:01.000Z,100.00
2023-02-09T23:03:56.000Z,100.00
2023-02-09T23:08:50.000Z,100.00
2023-02-09T23:13:43.000Z,100.00
2023-02-09T23:18:36.000Z,100.00
2023-02-09T23:23:30.000Z,100.00
2023-02-09T23:28:24.000Z,100.00
2023-02-09T23:33:18.000Z,100.00
2023-02-09T23:38:13.000Z,100.00
2023-02-09T23:43:09.000Z,100.00
2023-02-09T23:48:00.000Z,100.00
2023-02-09T23:52:55.000Z,100.00
2023-02-09T23:57:48.000Z,100.00
